createdAt,value
2018-03-14T00:00:54.887Z,99007.58
2018-03-14T00:03:22.029Z,99017.37
2018-03-14T00:05:49.107Z,99019.89
2018-03-14T00:08:15.432Z,99029.82
2018-03-14T00:10:41.739Z,99028.98
2018-03-14T00:13:08.828Z,99032.03
2018-03-14T00:15:35.142Z,99039.34
2018-03-14T00:18:01.495Z,99044.05
2018-03-14T00:20:27.803Z,99049.59
2018-03-14T00:22:54.162Z,99055.74
2018-03-14T00:25:20.455Z,99060.91
2018-03-14T00:27:47.516Z,99061.30
2018-03-14T00:30:13.827Z,99069.23
2018-03-14T00:32:40.926Z,99067.76
2018-03-14T00:35:07.271Z,99065.73
2018-03-14T00:37:33.600Z,99069.35
2018-03-14T00:39:59.896Z,99075.99
2018-03-14T00:42:26.202Z,99079.45
2018-03-14T00:44:53.256Z,99079.39
2018-03-14T00:47:20.324Z,99083.36
2018-03-14T00:49:46.620Z,99080.25
2018-03-14T00:52:13.741Z,99087.98
2018-03-14T00:54:40.100Z,99085.92
2018-03-14T00:57:07.156Z,99089.83
2018-03-14T00:59:34.193Z,99089.36
2018-03-14T01:02:00.514Z,99092.79
2018-03-14T01:04:26.854Z,99098.44
2018-03-14T01:06:53.963Z,99092.79
2018-03-14T01:09:20.359Z,99083.03
2018-03-14T01:11:46.687Z,99100.25
2018-03-14T01:14:13.751Z,99101.08
2018-03-14T01:16:40.073Z,99102.39
2018-03-14T01:19:06.376Z,99096.74
2018-03-14T01:21:32.726Z,99106.31
2018-03-14T01:23:59.788Z,99101.92
2018-03-14T01:26:26.112Z,99120.49
2018-03-14T01:28:53.155Z,99114.92
2018-03-14T01:31:20.171Z,99119.61
2018-03-14T01:33:46.514Z,99109.75
2018-03-14T01:36:13.562Z,99109.80
2018-03-14T01:38:39.901Z,99112.44
2018-03-14T01:41:06.207Z,99119.59
2018-03-14T01:43:32.541Z,99121.25
2018-03-14T01:46:00.326Z,99117.20
2018-03-14T01:48:27.385Z,99124.47
2018-03-14T01:50:54.440Z,99125.52
2018-03-14T01:53:30.463Z,99119.65
2018-03-14T01:55:58.308Z,99132.50
2018-03-14T01:58:24.640Z,99132.83
2018-03-14T02:00:50.983Z,99130.34
2018-03-14T02:03:17.322Z,99139.48
2018-03-14T02:05:43.588Z,99132.98
2018-03-14T02:08:10.596Z,99144.20
2018-03-14T02:10:36.931Z,99135.32
2018-03-14T02:13:03.223Z,99142.19
2018-03-14T02:15:29.536Z,99136.72
2018-03-14T02:17:55.838Z,99141.63
2018-03-14T02:20:22.176Z,99141.67
2018-03-14T02:22:49.248Z,99152.62
2018-03-14T02:25:15.575Z,99155.07
2018-03-14T02:27:41.890Z,99156.01
2018-03-14T02:30:08.923Z,99157.61
2018-03-14T02:32:35.281Z,99151.88
2018-03-14T02:35:01.632Z,99159.52
2018-03-14T02:37:27.915Z,99155.41
2018-03-14T02:39:54.217Z,99156.23
2018-03-14T02:42:20.586Z,99155.59
2018-03-14T02:44:46.869Z,99158.97
2018-03-14T02:47:13.144Z,99165.98
2018-03-14T02:49:39.479Z,99157.26
2018-03-14T02:52:05.791Z,99156.59
2018-03-14T02:54:32.088Z,99165.39
2018-03-14T02:56:58.401Z,99172.75
2018-03-14T02:59:24.712Z,99170.98
2018-03-14T03:01:51.040Z,99175.89
2018-03-14T03:04:18.884Z,99167.92
2018-03-14T03:06:49.129Z,99167.25
2018-03-14T03:09:15.431Z,99175.28
2018-03-14T03:11:41.721Z,99180.73
2018-03-14T03:14:08.035Z,99177.91
2018-03-14T03:16:35.071Z,99187.78
2018-03-14T03:19:02.131Z,99183.09
2018-03-14T03:21:29.195Z,99187.36
2018-03-14T03:23:55.520Z,99191.02
2018-03-14T03:26:22.635Z,99186.40
2018-03-14T03:28:48.966Z,99186.27
2018-03-14T03:31:15.253Z,99182.47
2018-03-14T03:33:41.543Z,99191.09
2018-03-14T03:36:07.853Z,99196.30
2018-03-14T03:38:34.158Z,99206.38
2018-03-14T03:41:00.452Z,99207.44
2018-03-14T03:43:26.770Z,99205.25
2018-03-14T03:45:53.795Z,99208.73
2018-03-14T03:48:20.095Z,99213.81
2018-03-14T03:50:46.448Z,99216.00
2018-03-14T03:53:12.783Z,99212.25
2018-03-14T03:55:39.116Z,99215.55
2018-03-14T03:58:05.447Z,99212.89
2018-03-14T04:00:31.815Z,99210.35
2018-03-14T04:02:58.861Z,99223.27
2018-03-14T04:05:25.870Z,99216.16
2018-03-14T04:07:52.193Z,99221.52
2018-03-14T04:10:18.503Z,99231.23
2018-03-14T04:12:44.832Z,99226.21
2018-03-14T04:15:11.189Z,99221.70
2018-03-14T04:17:37.457Z,99233.02
2018-03-14T04:20:04.564Z,99231.40
2018-03-14T04:22:30.869Z,99228.91
2018-03-14T04:24:57.192Z,99219.93
2018-03-14T04:27:23.493Z,99231.53
2018-03-14T04:29:50.642Z,99236.44
2018-03-14T04:32:16.946Z,99237.89
2018-03-14T04:34:43.254Z,99239.90
2018-03-14T04:37:14.381Z,99230.71
2018-03-14T04:39:40.880Z,99242.09
2018-03-14T04:42:07.915Z,99230.17
2018-03-14T04:44:34.224Z,99238.34
2018-03-14T04:47:00.521Z,99237.11
2018-03-14T04:49:26.855Z,99247.80
2018-03-14T04:51:57.310Z,99246.92
2018-03-14T04:54:23.632Z,99241.32
2018-03-14T04:56:49.977Z,99250.69
2018-03-14T04:59:16.293Z,99252.20
2018-03-14T05:01:43.557Z,99250.95
2018-03-14T05:04:09.861Z,99251.91
2018-03-14T05:06:36.171Z,99261.48
2018-03-14T05:09:03.263Z,99252.80
2018-03-14T05:11:29.581Z,99261.41
2018-03-14T05:13:55.909Z,99255.52
2018-03-14T05:16:22.227Z,99259.25
2018-03-14T05:18:48.499Z,99264.34
2018-03-14T05:21:16.832Z,99263.63
2018-03-14T05:23:43.172Z,99269.36
2018-03-14T05:26:09.491Z,99265.94
2018-03-14T05:28:36.554Z,99269.47
2018-03-14T05:31:02.868Z,99271.78
2018-03-14T05:33:30.876Z,99270.23
2018-03-14T05:35:57.876Z,99269.28
2018-03-14T05:38:24.876Z,99275.84
2018-03-14T05:40:51.184Z,99274.26
2018-03-14T05:43:17.465Z,99270.16
2018-03-14T05:45:44.828Z,99281.50
2018-03-14T05:48:11.140Z,99282.68
2018-03-14T05:50:37.429Z,99287.88
2018-03-14T05:53:03.745Z,99287.00
2018-03-14T05:55:30.155Z,99293.12
2018-03-14T05:57:57.169Z,99306.77
2018-03-14T06:00:23.496Z,99289.19
2018-03-14T06:02:49.855Z,99303.43
2018-03-14T06:05:16.171Z,99303.20
2018-03-14T06:07:42.506Z,99300.52
2018-03-14T06:10:08.846Z,99309.45
2018-03-14T06:12:35.208Z,99311.69
2018-03-14T06:15:02.254Z,99311.00
2018-03-14T06:17:29.300Z,99318.03
2018-03-14T06:19:56.351Z,99313.22
2018-03-14T06:22:23.396Z,99325.38
2018-03-14T06:24:50.457Z,99326.34
2018-03-14T06:27:16.766Z,99331.75
2018-03-14T06:29:43.569Z,99329.38
2018-03-14T06:32:09.851Z,99334.83
2018-03-14T06:34:36.901Z,99336.38
2018-03-14T06:37:03.907Z,99345.01
2018-03-14T06:39:30.241Z,99338.59
2018-03-14T06:41:56.512Z,99344.63
2018-03-14T06:44:23.586Z,99347.32
2018-03-14T06:46:49.879Z,99345.93
2018-03-14T06:49:16.920Z,99354.89
2018-03-14T06:51:43.246Z,99360.48
2018-03-14T06:54:09.494Z,99362.73
2018-03-14T06:56:36.512Z,99371.00
2018-03-14T06:59:21.440Z,99368.42
2018-03-14T07:05:15.651Z,99393.30
2018-03-14T07:07:41.935Z,99372.14
2018-03-14T07:10:08.267Z,99385.66
2018-03-14T07:12:35.331Z,99389.60
2018-03-14T07:15:03.280Z,99387.97
2018-03-14T07:17:29.572Z,99391.85
2018-03-14T07:19:55.931Z,99396.44
2018-03-14T07:22:22.299Z,99399.43
2018-03-14T07:24:48.608Z,99391.58
2018-03-14T07:27:15.028Z,99400.14
2018-03-14T07:29:41.428Z,99398.45
2018-03-14T07:32:07.761Z,99398.33
2018-03-14T07:34:34.056Z,99399.92
2018-03-14T07:37:00.376Z,99402.89
2018-03-14T07:39:27.386Z,99413.92
2018-03-14T07:41:53.652Z,99417.34
2018-03-14T07:44:20.678Z,99416.51
2018-03-14T07:46:47.732Z,99419.11
2018-03-14T07:49:14.029Z,99418.33
2018-03-14T07:51:40.321Z,99428.53
2018-03-14T07:54:07.379Z,99419.15
2018-03-14T07:56:33.694Z,99416.38
2018-03-14T07:59:00.775Z,99421.05
2018-03-14T08:01:27.783Z,99412.27
2018-03-14T08:03:54.799Z,99403.23
2018-03-14T08:06:21.133Z,99416.86
2018-03-14T08:08:47.403Z,99420.27
2018-03-14T08:11:14.402Z,99410.89
2018-03-14T08:13:40.949Z,99416.50
2018-03-14T08:16:07.063Z,99412.11
2018-03-14T08:18:33.402Z,99403.58
2018-03-14T08:20:59.728Z,99421.17
2018-03-14T08:23:26.038Z,99418.78
2018-03-14T08:25:52.334Z,99418.77
2018-03-14T08:28:18.640Z,99425.47
2018-03-14T08:30:44.969Z,99425.59
2018-03-14T08:33:11.311Z,99429.97
2018-03-14T08:35:38.939Z,99427.79
2018-03-14T08:38:05.219Z,99421.73
2018-03-14T08:40:31.547Z,99429.66
2018-03-14T08:42:58.602Z,99427.27
2018-03-14T08:45:24.903Z,99425.73
2018-03-14T08:47:51.236Z,99420.42
2018-03-14T08:50:17.556Z,99428.92
2018-03-14T08:52:43.865Z,99415.08
2018-03-14T08:55:10.141Z,99415.02
2018-03-14T08:57:37.193Z,99416.02
2018-03-14T09:00:04.198Z,99419.77
2018-03-14T09:02:30.517Z,99427.83
2018-03-14T09:04:56.776Z,99424.30
2018-03-14T09:07:23.150Z,99419.41
2018-03-14T09:09:49.435Z,99431.23
2018-03-14T09:12:15.784Z,99437.00
2018-03-14T09:14:42.793Z,99431.88
2018-03-14T09:17:10.037Z,99431.28
2018-03-14T09:19:36.315Z,99436.37
2018-03-14T09:22:03.400Z,99433.50
2018-03-14T09:24:29.685Z,99446.80
2018-03-14T09:26:56.017Z,99449.23
2018-03-14T09:29:22.351Z,99446.58
2018-03-14T09:31:48.683Z,99454.66
2018-03-14T09:34:15.073Z,99452.91
2018-03-14T09:36:41.439Z,99456.53
2018-03-14T09:39:09.227Z,99446.81
2018-03-14T09:41:35.550Z,99447.19
2018-03-14T09:44:02.578Z,99446.59
2018-03-14T09:46:28.836Z,99445.95
2018-03-14T09:48:55.816Z,99452.68
2018-03-14T09:51:22.107Z,99444.42
2018-03-14T09:53:48.383Z,99457.44
2018-03-14T09:56:14.671Z,99450.47
2018-03-14T09:58:41.676Z,99450.60
2018-03-14T10:01:07.951Z,99456.27
2018-03-14T10:03:34.943Z,99450.92
2018-03-14T10:06:01.268Z,99450.33
2018-03-14T10:08:27.603Z,99450.58
2018-03-14T10:10:53.899Z,99452.04
2018-03-14T10:13:20.223Z,99457.02
2018-03-14T10:15:47.257Z,99461.15
2018-03-14T10:18:14.326Z,99451.80
2018-03-14T10:20:41.306Z,99452.44
2018-03-14T10:23:07.595Z,99452.44
2018-03-14T10:25:34.729Z,99460.58
2018-03-14T10:28:01.012Z,99461.11
2018-03-14T10:30:27.304Z,99463.60
2018-03-14T10:32:54.352Z,99463.19
2018-03-14T10:35:21.430Z,99454.34
2018-03-14T10:37:48.468Z,99454.75
2018-03-14T10:40:14.780Z,99453.13
2018-03-14T10:42:41.058Z,99470.42
2018-03-14T10:45:07.320Z,99462.61
2018-03-14T10:47:33.628Z,99458.87
2018-03-14T10:49:59.898Z,99465.95
2018-03-14T10:52:26.926Z,99466.14
2018-03-14T10:54:53.233Z,99457.43
2018-03-14T10:57:19.557Z,99458.28
2018-03-14T10:59:46.795Z,99458.88
2018-03-14T11:02:14.954Z,99457.43
2018-03-14T11:04:41.293Z,99454.54
2018-03-14T11:07:07.613Z,99454.95
2018-03-14T11:09:33.889Z,99456.19
2018-03-14T11:12:00.182Z,99459.47
2018-03-14T11:14:26.524Z,99458.81
2018-03-14T11:16:52.798Z,99465.48
2018-03-14T11:19:20.570Z,99467.20
2018-03-14T11:21:47.645Z,99464.52
2018-03-14T11:24:13.929Z,99463.66
2018-03-14T11:26:40.232Z,99460.77
2018-03-14T11:29:06.591Z,99459.86
2018-03-14T11:31:40.056Z,99456.95
2018-03-14T11:34:06.392Z,99460.23
2018-03-14T11:36:32.712Z,99460.11
2018-03-14T11:38:59.008Z,99454.40
2018-03-14T11:41:26.070Z,99452.87
2018-03-14T11:43:53.120Z,99456.47
2018-03-14T11:46:20.178Z,99456.99
2018-03-14T11:48:46.506Z,99455.13
2018-03-14T11:51:12.765Z,99458.17
2018-03-14T11:53:39.060Z,99456.48
2018-03-14T11:56:05.325Z,99463.37
2018-03-14T11:58:31.565Z,99458.48
2018-03-14T12:00:57.897Z,99472.88
2018-03-14T12:03:24.196Z,99462.46
2018-03-14T12:05:50.523Z,99462.69
2018-03-14T12:08:16.807Z,99458.06
2018-03-14T12:10:43.130Z,99452.80
2018-03-14T12:13:09.423Z,99459.19
2018-03-14T12:15:36.472Z,99451.95
2018-03-14T12:18:02.786Z,99450.84
2018-03-14T12:20:29.059Z,99450.39
2018-03-14T12:22:55.367Z,99452.28
2018-03-14T12:25:21.678Z,99444.98
2018-03-14T12:27:48.022Z,99446.58
2018-03-14T12:30:14.342Z,99445.04
2018-03-14T12:32:40.682Z,99445.50
2018-03-14T12:35:13.919Z,99444.82
2018-03-14T12:37:40.220Z,99438.08
2018-03-14T12:40:06.484Z,99443.69
2018-03-14T12:42:32.807Z,99447.20
2018-03-14T12:44:59.125Z,99443.90
2018-03-14T12:47:25.409Z,99446.30
2018-03-14T12:49:52.412Z,99450.77
2018-03-14T12:52:18.717Z,99444.82
2018-03-14T12:54:45.023Z,99447.86
2018-03-14T12:57:11.341Z,99440.03
2018-03-14T12:59:37.606Z,99443.58
2018-03-14T13:02:03.943Z,99443.27
2018-03-14T13:04:30.288Z,99446.11
2018-03-14T13:06:56.623Z,99441.93
2018-03-14T13:09:22.967Z,99440.09
2018-03-14T13:11:49.356Z,99448.91
2018-03-14T13:14:15.727Z,99441.34
2018-03-14T13:16:42.028Z,99439.55
2018-03-14T13:19:08.352Z,99443.54
2018-03-14T13:21:34.686Z,99446.61
2018-03-14T13:24:01.040Z,99441.84
2018-03-14T13:26:27.415Z,99442.75
2018-03-14T13:28:53.709Z,99449.38
2018-03-14T13:31:20.056Z,99442.54
2018-03-14T13:33:46.383Z,99447.77
2018-03-14T13:36:12.724Z,99452.31
2018-03-14T13:38:39.036Z,99452.42
2018-03-14T13:41:05.395Z,99455.23
2018-03-14T13:43:31.700Z,99451.07
2018-03-14T13:45:58.006Z,99444.73
2018-03-14T13:48:24.342Z,99440.75
2018-03-14T13:50:50.640Z,99439.28
2018-03-14T13:53:16.990Z,99439.14
2018-03-14T13:55:43.259Z,99444.52
2018-03-14T13:58:09.584Z,99433.70
2018-03-14T14:00:35.918Z,99434.27
2018-03-14T14:03:02.239Z,99439.03
2018-03-14T14:05:28.506Z,99437.11
2018-03-14T14:07:55.691Z,99437.03
2018-03-14T14:10:21.991Z,99432.28
2018-03-14T14:12:49.041Z,99430.61
2018-03-14T14:15:16.103Z,99434.89
2018-03-14T14:17:43.277Z,99434.53
2018-03-14T14:20:09.599Z,99433.97
2018-03-14T14:22:35.891Z,99432.13
2018-03-14T14:25:02.713Z,99435.21
2018-03-14T14:27:29.098Z,99429.61
2018-03-14T14:29:55.496Z,99431.19
2018-03-14T14:32:21.780Z,99441.38
2018-03-14T14:34:48.135Z,99438.45
2018-03-14T14:37:14.454Z,99441.31
2018-03-14T14:39:40.738Z,99441.52
2018-03-14T14:42:07.767Z,99437.62
2018-03-14T14:44:34.029Z,99431.84
2018-03-14T14:47:00.340Z,99434.03
2018-03-14T14:49:27.394Z,99432.12
2018-03-14T14:51:54.425Z,99433.22
2018-03-14T14:54:20.773Z,99432.03
2018-03-14T14:56:47.823Z,99432.09
2018-03-14T14:59:14.132Z,99434.33
2018-03-14T15:01:40.456Z,99422.02
2018-03-14T15:04:06.749Z,99429.91
2018-03-14T15:06:34.141Z,99431.97
2018-03-14T15:09:00.396Z,99413.87
2018-03-14T15:11:27.401Z,99413.13
2018-03-14T15:13:53.718Z,99400.27
2018-03-14T15:16:20.006Z,99404.83
2018-03-14T15:18:47.064Z,99406.98
2018-03-14T15:21:13.486Z,99410.53
2018-03-14T15:23:39.788Z,99407.34
2018-03-14T15:26:06.107Z,99408.38
2018-03-14T15:28:32.402Z,99405.30
2018-03-14T15:30:58.742Z,99407.18
2018-03-14T15:33:25.065Z,99400.88
2018-03-14T15:35:51.353Z,99402.89
2018-03-14T15:38:17.644Z,99401.57
2018-03-14T15:40:44.032Z,99405.81
2018-03-14T15:43:10.439Z,99407.59
2018-03-14T15:45:36.820Z,99406.56
2018-03-14T15:48:03.175Z,99409.59
2018-03-14T15:50:29.504Z,99407.14
2018-03-14T15:52:55.865Z,99407.09
2018-03-14T15:55:22.151Z,99406.13
2018-03-14T15:57:48.453Z,99407.02
2018-03-14T16:00:15.502Z,99407.52
2018-03-14T16:02:42.623Z,99404.22
2018-03-14T16:05:08.942Z,99402.41
2018-03-14T16:07:35.252Z,99396.84
2018-03-14T16:10:02.398Z,99402.50
2018-03-14T16:12:28.694Z,99401.98
2018-03-14T16:14:55.678Z,99399.34
2018-03-14T16:17:21.972Z,99404.10
2018-03-14T16:19:49.093Z,99401.68
2018-03-14T16:22:15.389Z,99404.78
2018-03-14T16:24:41.665Z,99397.36
2018-03-14T16:27:08.775Z,99398.69
2018-03-14T16:29:35.293Z,99402.70
2018-03-14T16:32:01.631Z,99406.50
2018-03-14T16:34:27.933Z,99405.58
2018-03-14T16:36:55.037Z,99408.78
2018-03-14T16:39:22.193Z,99404.16
2018-03-14T16:41:48.474Z,99409.00
2018-03-14T16:44:14.777Z,99407.17
2018-03-14T16:46:41.722Z,99405.84
2018-03-14T16:49:08.028Z,99403.77
2018-03-14T16:51:35.862Z,99406.97
2018-03-14T16:54:02.172Z,99407.14
2018-03-14T16:56:29.282Z,99407.74
2018-03-14T16:58:55.574Z,99407.32
2018-03-14T17:01:21.857Z,99407.79
2018-03-14T17:03:48.962Z,99407.13
2018-03-14T17:06:15.269Z,99416.38
2018-03-14T17:08:41.590Z,99407.69
2018-03-14T17:11:07.973Z,99408.29
2018-03-14T17:13:34.221Z,99409.56
2018-03-14T17:16:00.521Z,99408.36
2018-03-14T17:18:26.871Z,99410.65
2018-03-14T17:20:53.160Z,99418.19
2018-03-14T17:23:19.444Z,99416.47
2018-03-14T17:25:45.724Z,99412.92
2018-03-14T17:28:12.057Z,99414.70
2018-03-14T17:30:38.339Z,99414.22
2018-03-14T17:33:04.644Z,99420.48
2018-03-14T17:35:30.981Z,99417.09
2018-03-14T17:37:57.312Z,99420.66
2018-03-14T17:40:23.653Z,99422.96
2018-03-14T17:42:50.023Z,99424.23
2018-03-14T17:45:17.052Z,99428.27
2018-03-14T17:47:43.436Z,99428.55
2018-03-14T17:50:09.826Z,99424.88
2018-03-14T17:52:36.896Z,99427.13
2018-03-14T17:55:03.184Z,99426.94
2018-03-14T17:57:29.500Z,99425.77
2018-03-14T17:59:55.761Z,99431.97
2018-03-14T18:02:22.068Z,99429.45
2018-03-14T18:04:48.390Z,99429.80
2018-03-14T18:07:14.708Z,99422.94
2018-03-14T18:09:41.041Z,99428.23
2018-03-14T18:12:07.396Z,99425.73
2018-03-14T18:14:33.710Z,99426.52
2018-03-14T18:17:00.019Z,99426.55
2018-03-14T18:19:26.262Z,99432.97
2018-03-14T18:21:52.514Z,99431.62
2018-03-14T18:24:21.517Z,99427.50
2018-03-14T18:26:48.670Z,99429.80
2018-03-14T18:29:15.054Z,99425.75
2018-03-14T18:31:41.463Z,99423.89
2018-03-14T18:34:07.805Z,99420.81
2018-03-14T18:36:34.214Z,99425.80
2018-03-14T18:39:04.048Z,99422.80
2018-03-14T18:41:30.410Z,99421.46
2018-03-14T18:43:56.778Z,99423.50
2018-03-14T18:46:23.108Z,99425.01
2018-03-14T18:48:49.546Z,99421.93
2018-03-14T18:51:16.833Z,99426.31
2018-03-14T18:53:44.195Z,99415.67
2018-03-14T18:56:10.525Z,99417.16
2018-03-14T18:58:36.830Z,99419.34
2018-03-14T19:01:03.172Z,99417.84
2018-03-14T19:03:30.221Z,99409.11
2018-03-14T19:05:57.284Z,99418.03
2018-03-14T19:08:23.652Z,99419.14
2018-03-14T19:10:49.992Z,99417.03
2018-03-14T19:13:16.427Z,99413.24
2018-03-14T19:15:42.798Z,99408.41
2018-03-14T19:18:09.898Z,99416.41
2018-03-14T19:20:36.275Z,99406.08
2018-03-14T19:23:02.650Z,99402.30
2018-03-14T19:25:29.013Z,99410.22
2018-03-14T19:27:55.380Z,99414.63
2018-03-14T19:30:21.766Z,99420.50
2018-03-14T19:32:48.193Z,99413.34
2018-03-14T19:35:14.600Z,99413.51
2018-03-14T19:37:41.065Z,99418.45
2018-03-14T19:40:07.427Z,99421.23
2018-03-14T19:42:33.791Z,99420.05
2018-03-14T19:45:00.118Z,99417.35
2018-03-14T19:47:26.551Z,99416.63
2018-03-14T19:49:53.031Z,99416.28
2018-03-14T19:52:19.608Z,99409.68
2018-03-14T19:54:46.688Z,99412.66
2018-03-14T19:57:13.096Z,99406.28
2018-03-14T19:59:40.348Z,99403.25
2018-03-14T20:02:06.693Z,99410.09
2018-03-14T20:04:33.147Z,99398.31
2018-03-14T20:06:59.585Z,99411.19
2018-03-14T20:09:26.068Z,99400.13
2018-03-14T20:11:53.324Z,99402.70
2018-03-14T20:14:20.429Z,99400.62
2018-03-14T20:16:46.748Z,99408.76
2018-03-14T20:19:13.339Z,99403.44
2018-03-14T20:21:40.468Z,99410.38
2018-03-14T20:24:06.801Z,99407.13
2018-03-14T20:26:33.298Z,99408.80
2018-03-14T20:28:59.644Z,99406.75
2018-03-14T20:31:25.975Z,99414.48
2018-03-14T20:33:52.437Z,99407.95
2018-03-14T20:36:18.873Z,99409.63
2018-03-14T20:38:45.275Z,99408.33
2018-03-14T20:41:11.665Z,99405.82
2018-03-14T20:43:38.786Z,99409.27
2018-03-14T20:46:06.002Z,99403.64
2018-03-14T20:48:32.504Z,99406.20
2018-03-14T20:50:59.312Z,99404.92
2018-03-14T20:53:26.430Z,99400.83
2018-03-14T20:55:52.799Z,99402.54
2018-03-14T20:58:19.079Z,99410.32
2018-03-14T21:00:45.400Z,99408.61
2018-03-14T21:03:11.764Z,99408.70
2018-03-14T21:05:38.115Z,99409.69
2018-03-14T21:08:04.417Z,99405.59
2018-03-14T21:10:30.779Z,99404.38
2018-03-14T21:12:57.135Z,99404.02
2018-03-14T21:15:27.096Z,99404.80
2018-03-14T21:17:53.575Z,99398.01
2018-03-14T21:26:03.973Z,99399.94
2018-03-14T21:28:30.558Z,99387.39
2018-03-14T21:30:56.881Z,99391.67
2018-03-14T21:33:23.292Z,99388.12
2018-03-14T21:35:50.428Z,99387.20
2018-03-14T21:38:20.023Z,99381.25
2018-03-14T21:40:49.645Z,99377.89
2018-03-14T21:43:29.577Z,99383.53
2018-03-14T21:45:58.076Z,99386.20
2018-03-14T21:48:32.635Z,99387.03
2018-03-14T21:50:59.237Z,99379.11
2018-03-14T21:53:37.055Z,99383.06
2018-03-14T21:56:03.427Z,99376.87
2018-03-14T21:58:29.744Z,99373.44
2018-03-14T22:00:56.033Z,99368.28
2018-03-14T22:03:22.361Z,99368.13
2018-03-14T22:05:49.514Z,99363.34
2018-03-14T22:08:16.658Z,99365.82
2018-03-14T22:10:42.932Z,99362.28
2018-03-14T22:13:09.385Z,99360.47
2018-03-14T22:15:35.803Z,99360.55
2018-03-14T22:18:02.122Z,99358.19
2018-03-14T22:20:28.520Z,99355.84
2018-03-14T22:22:54.855Z,99364.53
2018-03-14T22:25:21.201Z,99360.67
2018-03-14T22:27:48.306Z,99356.49
2018-03-14T22:30:14.624Z,99357.59
2018-03-14T22:32:40.936Z,99360.61
2018-03-14T22:35:07.556Z,99357.70
2018-03-14T22:37:34.611Z,99354.06
2018-03-14T22:40:00.985Z,99350.34
2018-03-14T22:42:27.259Z,99349.30
2018-03-14T22:44:54.318Z,99353.78
2018-03-14T22:47:27.596Z,99353.50
2018-03-14T22:49:54.674Z,99350.92
2018-03-14T22:52:20.989Z,99351.63
2018-03-14T22:54:47.284Z,99356.62
2018-03-14T22:57:13.782Z,99354.78
2018-03-14T22:59:40.070Z,99349.43
2018-03-14T23:02:07.097Z,99352.00
2018-03-14T23:04:33.401Z,99348.98
2018-03-14T23:06:59.729Z,99351.81
2018-03-14T23:09:26.167Z,99353.70
2018-03-14T23:11:53.280Z,99348.57
2018-03-14T23:14:19.605Z,99350.09
2018-03-14T23:16:46.643Z,99349.11
2018-03-14T23:19:13.728Z,99341.14
2018-03-14T23:21:40.096Z,99346.69
2018-03-14T23:24:06.434Z,99343.41
2018-03-14T23:26:32.787Z,99337.33
2018-03-14T23:29:00.121Z,99335.06
2018-03-14T23:31:26.482Z,99341.41
2018-03-14T23:33:53.515Z,99336.63
2018-03-14T23:36:20.645Z,99335.12
2018-03-14T23:38:47.017Z,99333.91
2018-03-14T23:41:14.097Z,99338.95
2018-03-14T23:43:40.466Z,99334.27
2018-03-14T23:46:06.813Z,99334.79
2018-03-14T23:48:33.153Z,99333.98
2018-03-14T23:51:00.201Z,99330.88
2018-03-14T23:53:26.509Z,99329.06
2018-03-14T23:55:52.965Z,99333.75
2018-03-14T23:58:19.999Z,99326.22
